Airfield :
LOGIN :

Register | Disclaimer

   EN    FR    IT 

 










Legend :    VFR   Marginal VFR   IFR   Intensive IFR   Very Intensive IFR
Visi :
Ceiling :
>= 8 km
>= 3000ft
5 to 8 km
1000 to 3000 ft
1500m to 5 km
500 to 1000 ft
800 to 1500m
200 to 500 ft
< 800m
< 200 ft
Symbols :   Thunderstorms  Fog  Heavy snow  Heavy precipitations  Wind > 20 kt
SIGMETs :     Misc.  Thunderstorms  Icing  Turbulence  Mountain Waves  Volcanic Ashes







- Airport Elevation : 465 ft
- IATA code : LEJ


EDDP - Leipzig Halle

CURRENT METAR :
  • 250920Z 30006KT 250V340 9999 FEW027 BKN037 17/09 Q1022 NOSIG

EXPIRED METARs :
  • 250850Z 32006KT 280V360 9999 FEW017 BKN033 16/11 Q1022 NOSIG
  • 250820Z 31009KT 280V350 9999 SCT016 BKN033 15/11 Q1022 NOSIG
  • 250750Z 31006KT 280V340 9999 FEW011 SCT013 BKN030 14/11 Q1021 TEMPO BKN013
  • 250720Z 33007KT 300V360 9999 BKN011 BKN030 14/12 Q1021 BECMG SCT011
  • 250650Z 31005KT 280V360 9999 FEW007 BKN009 BKN030 14/12 Q1021 BECMG BKN012

TAF TAF EDDP
Valid from the 25 at 06:00 until the 26 at 06:00 UTC


250500Z 2506/2606 32008KT 9999 BKN009
BECMG 2506/2509 FEW020 SCT040
TEMPO 2516/2520 32013KT
BECMG 2520/2522 28003KT
No reported NOTAMs for that airfield.



MET'MAP, your aeronautical weather chart ! - Copyright ORBIFLY December 2007 - Disclaimer

ORBIFLY MET'MAP TEAM :

Programming & Development : Alexandra Zaïnal
Concept & Development : Baudouin d'Aumeries
Co-Development & Prog : Marc-Olivier Méhu
Technical & hardware support : Manuel Goepfert

Contact : metmap@orbifly.com




SOURCES & CREDITS :

   NOAA